createdAt,value
2022-08-09T00:00:58.596Z,18.99
2022-08-09T00:04:10.960Z,18.95
2022-08-09T00:06:23.303Z,18.99
2022-08-09T00:08:52.341Z,18.96
2022-08-09T00:11:24.532Z,18.96
2022-08-09T00:13:53.111Z,18.88
2022-08-09T00:16:26.350Z,18.87
2022-08-09T00:19:10.215Z,18.86
2022-08-09T00:21:55.573Z,18.83
2022-08-09T00:24:27.431Z,18.84
2022-08-09T00:26:57.315Z,18.91
2022-08-09T00:30:10.079Z,19.09
2022-08-09T00:32:13.986Z,19.21
2022-08-09T00:34:56.134Z,19.10
2022-08-09T00:37:24.640Z,19.10
2022-08-09T00:40:09.724Z,19.08
2022-08-09T00:44:19.480Z,18.94
2022-08-09T00:45:29.044Z,18.96
2022-08-09T00:47:57.176Z,18.92
2022-08-09T00:50:27.284Z,18.92
2022-08-09T00:52:55.517Z,18.88
2022-08-09T00:56:03.069Z,19.00
2022-08-09T00:58:14.788Z,19.10
2022-08-09T01:00:53.552Z,18.99
2022-08-09T01:03:29.582Z,19.11
2022-08-09T01:06:17.810Z,19.46
2022-08-09T01:08:55.756Z,19.37
2022-08-09T01:11:35.307Z,19.34
2022-08-09T01:14:09.927Z,19.25
2022-08-09T01:16:47.362Z,19.12
2022-08-09T01:19:42.458Z,18.81
2022-08-09T01:22:51.293Z,18.75
2022-08-09T01:25:41.649Z,18.74
2022-08-09T01:28:13.457Z,18.99
2022-08-09T01:30:51.603Z,19.00
2022-08-09T01:33:24.939Z,19.03
2022-08-09T01:36:00.725Z,18.87
2022-08-09T01:38:32.340Z,18.81
2022-08-09T01:41:07.085Z,18.72
2022-08-09T01:43:50.354Z,18.70
2022-08-09T01:46:24.709Z,18.83
2022-08-09T01:49:00.288Z,18.94
2022-08-09T01:51:53.046Z,18.96
2022-08-09T01:54:26.184Z,18.94
2022-08-09T01:56:58.047Z,18.96
2022-08-09T01:59:33.797Z,18.97
2022-08-09T02:02:21.707Z,18.92
2022-08-09T02:04:51.829Z,18.85
2022-08-09T02:08:39.693Z,18.84
2022-08-09T02:10:28.555Z,18.67
2022-08-09T02:13:00.689Z,18.63
2022-08-09T02:15:49.655Z,18.65
2022-08-09T02:18:23.089Z,18.74
2022-08-09T02:20:57.028Z,18.81
2022-08-09T02:23:31.949Z,18.95
2022-08-09T02:26:27.103Z,18.77
2022-08-09T02:28:59.860Z,18.83
2022-08-09T02:31:35.514Z,18.74
2022-08-09T02:34:13.662Z,18.67
2022-08-09T02:36:59.130Z,18.66
2022-08-09T02:39:33.606Z,18.69
2022-08-09T02:42:06.584Z,18.68
2022-08-09T02:44:38.691Z,18.60
2022-08-09T02:47:11.298Z,18.55
2022-08-09T02:49:44.415Z,18.38
2022-08-09T02:52:16.163Z,18.43
2022-08-09T02:54:54.027Z,18.43
2022-08-09T02:57:25.499Z,18.46
2022-08-09T03:00:21.526Z,18.51
2022-08-09T03:02:58.234Z,18.21
2022-08-09T03:05:34.574Z,18.25
2022-08-09T03:08:04.569Z,18.22
2022-08-09T03:10:35.852Z,18.20
2022-08-09T03:13:08.551Z,18.04
2022-08-09T03:16:06.283Z,17.94
2022-08-09T03:18:33.772Z,18.06
2022-08-09T03:21:08.994Z,18.09
2022-08-09T03:23:37.426Z,18.17
2022-08-09T03:26:06.097Z,18.12
2022-08-09T03:28:36.148Z,18.07
2022-08-09T03:31:10.333Z,18.12
2022-08-09T03:33:54.075Z,18.12
2022-08-09T03:36:27.697Z,18.12
2022-08-09T03:38:57.111Z,18.04
2022-08-09T03:41:30.321Z,18.03
2022-08-09T03:44:15.503Z,17.94
2022-08-09T03:46:44.291Z,17.86
2022-08-09T03:49:17.311Z,17.87
2022-08-09T03:51:56.175Z,17.98
2022-08-09T03:54:31.172Z,17.90
2022-08-09T03:57:04.309Z,17.94
2022-08-09T03:59:53.165Z,17.85
2022-08-09T04:02:27.593Z,17.83
2022-08-09T04:05:01.230Z,17.93
2022-08-09T04:07:52.297Z,17.91
2022-08-09T04:10:28.851Z,18.27
2022-08-09T04:13:01.419Z,18.15
2022-08-09T04:16:17.403Z,18.21
2022-08-09T04:18:21.756Z,18.37
2022-08-09T04:20:52.201Z,18.38
2022-08-09T04:23:24.628Z,18.44
2022-08-09T04:25:54.907Z,18.50
2022-08-09T04:28:31.381Z,18.55
2022-08-09T04:31:07.930Z,18.53
2022-08-09T04:33:51.777Z,18.81
2022-08-09T04:36:25.585Z,19.05
2022-08-09T04:38:54.460Z,19.40
2022-08-09T04:41:23.542Z,19.72
2022-08-09T04:44:06.263Z,19.78
2022-08-09T04:46:59.148Z,19.72
2022-08-09T04:49:52.540Z,20.11
2022-08-09T04:52:32.449Z,20.37
2022-08-09T04:55:04.306Z,20.82
2022-08-09T04:57:58.560Z,21.36
2022-08-09T05:00:24.026Z,21.92
2022-08-09T05:02:52.866Z,21.78
2022-08-09T05:05:31.782Z,21.48
2022-08-09T05:08:13.976Z,21.34
2022-08-09T05:10:43.354Z,21.12
2022-08-09T05:13:12.643Z,21.27
2022-08-09T05:15:52.295Z,21.34
2022-08-09T05:18:50.871Z,21.90
2022-08-09T05:21:23.308Z,22.13
2022-08-09T05:24:01.234Z,22.55
2022-08-09T05:26:37.581Z,23.26
2022-08-09T05:29:17.736Z,23.56
2022-08-09T05:31:50.682Z,24.16
2022-08-09T05:34:30.749Z,24.62
2022-08-09T05:37:04.918Z,24.55
2022-08-09T05:39:42.759Z,25.22
2022-08-09T05:42:17.692Z,25.08
2022-08-09T05:44:51.836Z,25.42
2022-08-09T05:47:21.725Z,25.46
2022-08-09T05:50:30.292Z,25.15
2022-08-09T05:52:41.914Z,25.26
2022-08-09T05:55:18.180Z,25.75
2022-08-09T05:57:51.404Z,25.35
2022-08-09T06:00:26.134Z,25.48
2022-08-09T06:02:56.946Z,24.09
2022-08-09T06:05:30.614Z,23.36
2022-08-09T06:08:19.304Z,24.88
2022-08-09T06:10:49.809Z,24.58
2022-08-09T06:13:20.597Z,25.32
2022-08-09T06:15:51.389Z,26.39
2022-08-09T06:18:25.315Z,26.68
2022-08-09T06:20:57.333Z,26.43
2022-08-09T06:23:58.820Z,26.87
2022-08-09T06:26:20.337Z,27.39
2022-08-09T06:28:50.261Z,27.71
2022-08-09T06:31:30.617Z,28.10
2022-08-09T06:33:59.921Z,28.33
2022-08-09T06:36:29.857Z,28.17
2022-08-09T06:38:58.669Z,28.14
2022-08-09T06:41:58.870Z,27.85
2022-08-09T06:44:21.166Z,28.03
2022-08-09T06:46:55.356Z,28.69
2022-08-09T06:49:29.116Z,28.70
2022-08-09T06:52:15.641Z,28.57
2022-08-09T06:54:44.235Z,28.76
2022-08-09T06:57:14.133Z,28.43
2022-08-09T07:00:50.845Z,27.78
2022-08-09T07:02:32.410Z,27.81
2022-08-09T07:05:01.654Z,27.41
2022-08-09T07:08:00.721Z,26.48
2022-08-09T07:10:29.828Z,26.44
2022-08-09T07:13:18.606Z,25.94
2022-08-09T07:16:36.254Z,25.64
2022-08-09T07:18:38.671Z,25.63
2022-08-09T07:21:07.672Z,25.25
2022-08-09T07:23:36.437Z,25.24
2022-08-09T07:26:14.850Z,24.99
2022-08-09T07:29:07.981Z,25.32
2022-08-09T07:31:38.175Z,25.06
2022-08-09T07:34:08.278Z,25.39
2022-08-09T07:36:48.676Z,25.15
2022-08-09T07:39:19.804Z,25.09
2022-08-09T07:41:48.889Z,25.23
2022-08-09T07:44:18.389Z,25.50
2022-08-09T07:46:52.429Z,25.55
2022-08-09T07:49:20.648Z,25.20
2022-08-09T07:52:05.447Z,25.24
2022-08-09T07:54:38.225Z,25.20
2022-08-09T07:57:11.725Z,25.28
2022-08-09T07:59:46.010Z,25.40
2022-08-09T08:02:29.690Z,25.26
2022-08-09T08:04:57.898Z,25.38
2022-08-09T08:08:43.694Z,25.53
2022-08-09T08:10:15.722Z,25.38
2022-08-09T08:12:46.889Z,25.46
2022-08-09T08:15:18.180Z,25.39
2022-08-09T08:17:58.374Z,25.21
2022-08-09T08:20:32.608Z,25.20
2022-08-09T08:23:15.730Z,25.22
2022-08-09T08:25:49.903Z,25.50
2022-08-09T08:28:31.835Z,25.39
2022-08-09T08:31:13.716Z,25.25
2022-08-09T08:33:53.811Z,25.24
2022-08-09T08:36:28.871Z,25.03
2022-08-09T08:38:58.152Z,25.31
2022-08-09T08:41:41.756Z,25.42
2022-08-09T08:44:16.291Z,25.29
2022-08-09T08:47:02.731Z,25.32
2022-08-09T08:49:38.374Z,25.37
2022-08-09T08:52:52.997Z,25.62
2022-08-09T08:55:05.614Z,25.55
2022-08-09T08:57:35.229Z,25.54
2022-08-09T09:00:17.119Z,25.47
2022-08-09T09:03:04.407Z,25.69
2022-08-09T09:06:01.087Z,25.91
2022-08-09T09:08:37.834Z,25.81
2022-08-09T09:11:13.510Z,25.83
2022-08-09T09:13:56.997Z,25.53
2022-08-09T09:16:31.859Z,25.76
2022-08-09T09:19:36.887Z,25.74
2022-08-09T09:22:11.676Z,26.05
2022-08-09T09:24:43.719Z,26.03
2022-08-09T09:28:03.035Z,26.10
2022-08-09T09:30:28.834Z,26.19
2022-08-09T09:33:15.652Z,26.25
2022-08-09T09:36:00.887Z,26.33
2022-08-09T09:38:43.273Z,26.42
2022-08-09T09:41:12.981Z,26.35
2022-08-09T09:44:11.831Z,26.40
2022-08-09T09:46:50.622Z,26.51
2022-08-09T09:49:31.761Z,26.43
2022-08-09T09:52:33.531Z,26.38
2022-08-09T09:55:16.516Z,26.35
2022-08-09T09:58:03.219Z,26.43
2022-08-09T10:00:33.695Z,26.76
2022-08-09T10:03:09.346Z,26.95
2022-08-09T10:06:03.963Z,27.17
2022-08-09T10:08:43.090Z,27.27
2022-08-09T10:12:01.348Z,27.28
2022-08-09T10:14:30.752Z,27.35
2022-08-09T10:17:40.362Z,27.45
2022-08-09T10:20:00.503Z,27.36
2022-08-09T10:22:36.648Z,27.20
2022-08-09T10:25:11.680Z,27.32
2022-08-09T10:27:45.151Z,27.46
2022-08-09T10:34:04.980Z,27.51
2022-08-09T10:36:02.197Z,27.52
2022-08-09T10:38:43.273Z,27.67
2022-08-09T10:41:20.977Z,27.81
2022-08-09T10:43:59.404Z,27.87
2022-08-09T10:46:55.630Z,27.76
2022-08-09T10:49:50.542Z,27.88
2022-08-09T10:52:36.536Z,28.13
2022-08-09T10:55:23.964Z,28.19
2022-08-09T10:57:55.694Z,28.36
2022-08-09T11:00:41.894Z,28.51
2022-08-09T11:03:49.540Z,28.59
2022-08-09T11:06:25.219Z,28.47
2022-08-09T11:08:54.944Z,28.49
2022-08-09T11:12:11.735Z,28.22
2022-08-09T11:14:44.655Z,28.18
2022-08-09T11:17:53.510Z,28.15
2022-08-09T11:20:47.566Z,28.14
2022-08-09T11:23:23.843Z,28.31
2022-08-09T11:25:54.812Z,28.44
2022-08-09T11:28:56.598Z,28.53
2022-08-09T11:31:49.724Z,28.33
2022-08-09T11:34:28.425Z,28.26
2022-08-09T11:37:00.126Z,28.50
2022-08-09T11:39:38.094Z,28.69
2022-08-09T11:42:14.594Z,28.84
2022-08-09T11:44:48.427Z,29.10
2022-08-09T11:47:18.096Z,28.88
2022-08-09T11:50:56.945Z,28.84
2022-08-09T11:53:58.044Z,28.36
2022-08-09T11:56:41.572Z,28.49
2022-08-09T11:59:30.394Z,28.87
2022-08-09T12:02:34.221Z,28.76
2022-08-09T12:04:58.734Z,28.90
2022-08-09T12:07:41.429Z,28.96
2022-08-09T12:10:14.070Z,28.97
2022-08-09T12:13:03.755Z,28.75
2022-08-09T12:15:52.626Z,28.94
2022-08-09T12:18:29.611Z,28.84
2022-08-09T12:21:02.740Z,29.09
2022-08-09T12:23:58.090Z,28.77
2022-08-09T12:26:26.390Z,29.16
2022-08-09T12:29:10.641Z,29.18
2022-08-09T12:31:59.263Z,29.50
2022-08-09T12:34:36.658Z,29.49
2022-08-09T12:37:21.765Z,29.33
2022-08-09T12:40:11.802Z,29.59
2022-08-09T12:42:45.178Z,28.94
2022-08-09T12:45:34.898Z,28.90
2022-08-09T12:48:02.964Z,29.24
2022-08-09T12:50:31.311Z,29.25
2022-08-09T12:53:09.573Z,29.24
2022-08-09T12:56:15.702Z,29.24
2022-08-09T12:58:35.215Z,29.46
2022-08-09T13:01:26.748Z,29.42
2022-08-09T13:03:59.396Z,29.34
2022-08-09T13:06:35.006Z,29.28
2022-08-09T13:09:08.813Z,29.12
2022-08-09T13:11:42.635Z,29.40
2022-08-09T13:14:41.192Z,29.42
2022-08-09T13:17:08.626Z,29.17
2022-08-09T13:20:07.632Z,29.26
2022-08-09T13:22:35.712Z,29.18
2022-08-09T13:25:17.018Z,29.25
2022-08-09T13:27:55.229Z,29.04
2022-08-09T13:30:50.129Z,29.08
2022-08-09T13:33:23.969Z,29.05
2022-08-09T13:36:24.788Z,28.85
2022-08-09T13:38:57.642Z,28.90
2022-08-09T13:41:59.395Z,28.78
2022-08-09T13:44:17.647Z,28.83
2022-08-09T13:47:27.405Z,28.97
2022-08-09T13:49:39.562Z,28.87
2022-08-09T13:52:24.777Z,29.03
2022-08-09T13:55:00.843Z,28.94
2022-08-09T13:57:39.602Z,29.10
2022-08-09T14:00:13.409Z,28.93
2022-08-09T14:03:03.365Z,29.07
2022-08-09T14:05:59.817Z,29.01
2022-08-09T14:08:20.913Z,29.01
2022-08-09T14:10:52.258Z,29.23
2022-08-09T14:14:15.858Z,29.29
2022-08-09T14:16:14.477Z,29.15
2022-08-09T14:18:45.692Z,29.18
2022-08-09T14:21:18.495Z,28.84
2022-08-09T14:23:55.413Z,28.90
2022-08-09T14:26:32.639Z,28.79
2022-08-09T14:29:07.756Z,28.82
2022-08-09T14:31:54.374Z,28.70
2022-08-09T14:34:31.281Z,28.60
2022-08-09T14:37:06.785Z,28.63
2022-08-09T14:39:45.795Z,28.67
2022-08-09T14:42:30.275Z,28.68
2022-08-09T14:46:46.158Z,28.64
2022-08-09T14:47:58.390Z,28.72
2022-08-09T14:50:31.317Z,28.68
2022-08-09T14:53:00.757Z,28.77
2022-08-09T14:55:32.514Z,28.68
2022-08-09T14:58:03.351Z,28.57
2022-08-09T15:00:36.428Z,28.64
2022-08-09T15:03:06.996Z,28.58
2022-08-09T15:05:36.631Z,28.61
2022-08-09T15:08:05.776Z,28.64
2022-08-09T15:10:35.471Z,28.67
2022-08-09T15:13:05.129Z,28.62
2022-08-09T15:15:39.689Z,28.45
2022-08-09T15:18:12.502Z,28.46
2022-08-09T15:21:57.232Z,28.64
2022-08-09T15:24:01.125Z,28.76
2022-08-09T15:26:31.507Z,28.65
2022-08-09T15:29:04.751Z,28.66
2022-08-09T15:31:40.683Z,28.71
2022-08-09T15:34:32.270Z,28.64
2022-08-09T15:36:58.505Z,28.86
2022-08-09T15:39:34.689Z,28.80
2022-08-09T15:42:12.298Z,28.73
2022-08-09T15:44:43.100Z,28.63
2022-08-09T15:47:14.609Z,28.54
2022-08-09T15:50:00.706Z,28.56
2022-08-09T15:52:34.262Z,28.58
2022-08-09T15:55:03.048Z,28.80
2022-08-09T15:57:35.532Z,28.59
2022-08-09T16:00:24.270Z,28.59
2022-08-09T16:02:57.158Z,28.64
2022-08-09T16:05:36.312Z,28.55
2022-08-09T16:08:29.605Z,28.48
2022-08-09T16:10:59.684Z,28.58
2022-08-09T16:14:02.897Z,28.65
2022-08-09T16:16:18.313Z,28.85
2022-08-09T16:18:48.729Z,28.62
2022-08-09T16:21:25.930Z,28.61
2022-08-09T16:23:58.273Z,28.33
2022-08-09T16:26:34.154Z,28.38
2022-08-09T16:29:10.964Z,28.46
2022-08-09T16:32:20.545Z,28.30
2022-08-09T16:34:53.441Z,28.35
2022-08-09T16:37:50.652Z,28.29
2022-08-09T16:40:10.885Z,28.41
2022-08-09T16:42:45.017Z,28.38
2022-08-09T16:45:14.948Z,28.38
2022-08-09T16:48:43.283Z,28.40
2022-08-09T16:50:34.823Z,28.07
2022-08-09T16:53:12.520Z,27.91
2022-08-09T16:55:57.620Z,28.03
2022-08-09T16:58:28.516Z,28.06
2022-08-09T17:01:04.019Z,28.08
2022-08-09T17:03:32.298Z,28.10
2022-08-09T17:06:28.431Z,28.07
2022-08-09T17:08:58.127Z,28.02
2022-08-09T17:11:41.256Z,27.91
2022-08-09T17:14:26.165Z,27.91
2022-08-09T17:17:00.168Z,27.86
2022-08-09T17:19:46.494Z,27.75
2022-08-09T17:22:24.135Z,27.74
2022-08-09T17:25:03.055Z,27.73
2022-08-09T17:27:33.070Z,27.67
2022-08-09T17:30:06.971Z,27.73
2022-08-09T17:32:44.324Z,27.66
2022-08-09T17:35:15.440Z,27.71
2022-08-09T17:38:02.644Z,27.79
2022-08-09T17:40:35.961Z,27.73
2022-08-09T17:43:32.095Z,27.76
2022-08-09T17:46:04.431Z,27.62
2022-08-09T17:48:38.803Z,27.55
2022-08-09T17:51:17.279Z,27.49
2022-08-09T17:53:52.149Z,27.65
2022-08-09T17:56:26.602Z,27.61
2022-08-09T17:59:01.163Z,27.59
2022-08-09T18:02:03.234Z,27.29
2022-08-09T18:04:20.741Z,27.26
2022-08-09T18:06:53.964Z,27.32
2022-08-09T18:09:41.108Z,27.27
2022-08-09T18:12:15.462Z,27.26
2022-08-09T18:14:54.822Z,27.12
2022-08-09T18:17:27.206Z,27.22
2022-08-09T18:21:00.796Z,27.08
2022-08-09T18:23:05.749Z,27.08
2022-08-09T18:25:50.975Z,27.06
2022-08-09T18:30:42.197Z,27.13
2022-08-09T18:31:12.162Z,26.94
2022-08-09T18:33:40.693Z,26.74
2022-08-09T18:36:14.270Z,26.58
2022-08-09T18:38:57.322Z,26.53
2022-08-09T18:41:34.959Z,26.46
2022-08-09T18:44:12.472Z,26.28
2022-08-09T18:46:46.807Z,26.21
2022-08-09T18:49:21.428Z,26.04
2022-08-09T18:51:54.889Z,26.05
2022-08-09T18:54:28.807Z,26.10
2022-08-09T18:57:06.227Z,26.06
2022-08-09T18:59:37.647Z,25.90
2022-08-09T19:02:18.634Z,25.85
2022-08-09T19:05:03.998Z,25.85
2022-08-09T19:07:36.591Z,25.72
2022-08-09T19:10:13.868Z,25.61
2022-08-09T19:12:51.377Z,25.52
2022-08-09T19:15:36.388Z,25.36
2022-08-09T19:18:05.614Z,25.30
2022-08-09T19:20:39.234Z,25.18
2022-08-09T19:23:08.099Z,25.19
2022-08-09T19:26:02.312Z,25.17
2022-08-09T19:28:38.000Z,25.19
2022-08-09T19:31:07.677Z,25.09
2022-08-09T19:33:36.122Z,25.08
2022-08-09T19:36:05.086Z,24.97
2022-08-09T19:38:39.953Z,25.00
2022-08-09T19:41:08.483Z,24.96
2022-08-09T19:44:01.758Z,24.91
2022-08-09T19:46:35.601Z,24.83
2022-08-09T19:50:10.140Z,24.77
2022-08-09T19:51:55.482Z,24.61
2022-08-09T19:54:25.253Z,24.63
2022-08-09T19:56:53.488Z,24.47
2022-08-09T19:59:58.546Z,24.65
2022-08-09T20:02:18.089Z,24.59
2022-08-09T20:05:01.560Z,24.50
2022-08-09T20:07:33.792Z,24.43
2022-08-09T20:10:22.171Z,24.40
2022-08-09T20:12:56.017Z,24.25
2022-08-09T20:16:34.643Z,24.30
2022-08-09T20:18:19.698Z,24.20
2022-08-09T20:20:50.531Z,24.20
2022-08-09T20:23:22.911Z,24.18
2022-08-09T20:25:53.420Z,24.15
2022-08-09T20:28:27.570Z,24.16
2022-08-09T20:31:05.025Z,24.05
2022-08-09T20:33:40.972Z,23.95
2022-08-09T20:36:13.066Z,24.06
2022-08-09T20:39:28.507Z,24.02
2022-08-09T20:41:34.802Z,23.96
2022-08-09T20:44:10.015Z,23.93
2022-08-09T20:46:44.297Z,23.87
2022-08-09T20:49:13.985Z,23.86
2022-08-09T20:51:44.111Z,23.83
2022-08-09T20:54:17.101Z,23.82
2022-08-09T20:56:47.107Z,23.76
2022-08-09T20:59:25.124Z,23.81
2022-08-09T21:02:07.794Z,23.83
2022-08-09T21:05:49.697Z,23.69
2022-08-09T21:07:38.878Z,23.73
2022-08-09T21:10:12.949Z,23.75
2022-08-09T21:15:34.514Z,23.71
2022-08-09T21:18:20.690Z,23.80
2022-08-09T21:20:54.352Z,23.76
2022-08-09T21:23:36.136Z,23.79
2022-08-09T21:26:11.424Z,23.72
2022-08-09T21:28:39.730Z,23.65
2022-08-09T21:31:23.888Z,23.66
2022-08-09T21:34:14.245Z,23.55
2022-08-09T21:36:55.342Z,23.70
2022-08-09T21:39:27.720Z,23.62
2022-08-09T21:42:05.686Z,23.52
2022-08-09T21:44:38.063Z,23.49
2022-08-09T21:47:09.008Z,23.55
2022-08-09T21:49:42.589Z,23.59
2022-08-09T21:52:14.791Z,23.49
2022-08-09T21:54:49.612Z,23.47
2022-08-09T21:57:25.458Z,23.53
2022-08-09T22:00:12.744Z,23.62
2022-08-09T22:02:42.870Z,23.55
2022-08-09T22:05:22.855Z,23.37
2022-08-09T22:07:54.018Z,23.34
2022-08-09T22:10:24.236Z,23.16
2022-08-09T22:12:53.244Z,23.10
2022-08-09T22:15:23.312Z,23.20
2022-08-09T22:18:01.577Z,23.08
2022-08-09T22:20:32.777Z,22.96
2022-08-09T22:23:01.360Z,23.04
2022-08-09T22:26:07.870Z,23.00
2022-08-09T22:28:29.748Z,22.76
2022-08-09T22:31:02.006Z,22.75
2022-08-09T22:33:37.543Z,22.70
2022-08-09T22:36:19.359Z,22.64
2022-08-09T22:38:48.778Z,22.48
2022-08-09T22:41:17.169Z,22.51
2022-08-09T22:44:02.168Z,22.38
2022-08-09T22:48:10.455Z,22.47
2022-08-09T22:49:20.812Z,22.40
2022-08-09T22:51:57.489Z,22.35
2022-08-09T22:54:27.554Z,22.26
2022-08-09T22:56:56.603Z,22.24
2022-08-09T22:59:57.702Z,22.22
2022-08-09T23:02:16.000Z,22.06
2022-08-09T23:04:53.926Z,21.92
2022-08-09T23:08:27.453Z,22.00
2022-08-09T23:10:31.692Z,22.02
2022-08-09T23:13:00.217Z,21.96
2022-08-09T23:15:29.324Z,21.94
2022-08-09T23:17:57.823Z,21.78
2022-08-09T23:20:28.603Z,21.77
2022-08-09T23:22:58.071Z,21.67
2022-08-09T23:25:26.228Z,21.65
2022-08-09T23:28:14.210Z,21.56
2022-08-09T23:30:51.958Z,21.48
2022-08-09T23:33:20.944Z,21.38
2022-08-09T23:36:06.208Z,21.32
2022-08-09T23:38:49.009Z,21.36
2022-08-09T23:41:27.927Z,21.31
2022-08-09T23:44:01.415Z,21.29
2022-08-09T23:46:30.817Z,21.27
2022-08-09T23:49:00.088Z,21.27
2022-08-09T23:51:29.193Z,21.11
2022-08-09T23:54:03.237Z,21.18
2022-08-09T23:56:53.647Z,21.13
2022-08-09T23:59:21.106Z,21.09
